createdAt,value
2022-12-09T00:00:09.754Z,25.35
2022-12-09T00:02:37.691Z,26.15
2022-12-09T00:05:06.563Z,26.70
2022-12-09T00:07:36.347Z,26.65
2022-12-09T00:10:05.078Z,25.60
2022-12-09T00:12:32.881Z,26.70
2022-12-09T00:15:01.963Z,29.15
2022-12-09T00:17:31.328Z,25.33
2022-12-09T00:19:59.185Z,24.70
2022-12-09T00:22:27.836Z,25.23
2022-12-09T00:24:55.969Z,26.23
2022-12-09T00:27:23.741Z,27.38
2022-12-09T00:29:51.782Z,24.77
2022-12-09T00:32:21.004Z,25.77
2022-12-09T00:34:49.470Z,25.73
2022-12-09T00:37:17.110Z,27.52
2022-12-09T00:39:44.980Z,27.45
2022-12-09T00:42:12.641Z,26.27
2022-12-09T00:44:40.478Z,28.10
2022-12-09T00:47:08.588Z,27.90
2022-12-09T00:49:37.624Z,24.48
2022-12-09T00:52:05.985Z,25.58
2022-12-09T00:54:33.972Z,30.27
2022-12-09T00:57:01.728Z,29.65
2022-12-09T00:59:29.679Z,33.63
2022-12-09T01:01:57.763Z,28.67
2022-12-09T01:04:26.589Z,29.77
2022-12-09T01:06:55.585Z,30.17
2022-12-09T01:09:23.642Z,29.23
2022-12-09T01:11:51.568Z,29.83
2022-12-09T01:14:19.231Z,29.58
2022-12-09T01:16:47.002Z,29.15
2022-12-09T01:19:15.235Z,30.95
2022-12-09T01:21:42.853Z,26.90
2022-12-09T01:24:12.559Z,28.10
2022-12-09T01:26:40.864Z,28.25
2022-12-09T01:29:08.620Z,29.25
2022-12-09T01:31:36.780Z,29.58
2022-12-09T01:34:05.148Z,30.20
2022-12-09T01:36:33.156Z,28.40
2022-12-09T01:39:01.449Z,29.98
2022-12-09T01:41:30.749Z,30.15
2022-12-09T01:44:13.316Z,28.50
2022-12-09T01:46:41.311Z,30.98
2022-12-09T01:49:13.144Z,30.60
2022-12-09T01:51:41.999Z,32.55
2022-12-09T01:54:10.476Z,28.02
2022-12-09T01:56:41.555Z,28.38
2022-12-09T01:59:13.965Z,29.42
2022-12-09T02:01:43.411Z,31.13
2022-12-09T02:04:11.258Z,30.20
2022-12-09T02:06:39.792Z,28.38
2022-12-09T02:09:11.150Z,25.77
2022-12-09T02:11:57.781Z,35.30
2022-12-09T02:14:30.357Z,28.45
2022-12-09T02:17:16.402Z,28.00
2022-12-09T02:19:54.415Z,30.38
2022-12-09T02:22:28.033Z,26.65
2022-12-09T02:25:00.126Z,29.83
2022-12-09T02:27:35.145Z,29.75
2022-12-09T02:30:13.037Z,27.92
2022-12-09T02:33:23.018Z,27.55
2022-12-09T02:35:56.649Z,26.67
2022-12-09T02:38:29.019Z,26.23
2022-12-09T02:41:02.032Z,27.83
2022-12-09T02:43:34.846Z,27.35
2022-12-09T02:46:04.226Z,29.20
2022-12-09T02:48:36.768Z,26.60
2022-12-09T02:51:10.082Z,27.00
2022-12-09T02:53:40.357Z,29.33
2022-12-09T02:56:10.377Z,31.75
2022-12-09T02:58:38.127Z,26.98
2022-12-09T03:01:07.276Z,28.55
2022-12-09T03:03:36.963Z,27.17
2022-12-09T03:06:10.426Z,27.02
2022-12-09T03:08:45.303Z,24.10
2022-12-09T03:11:15.308Z,24.92
2022-12-09T03:13:56.654Z,27.73
2022-12-09T03:16:31.933Z,27.80
2022-12-09T03:19:04.479Z,28.30
2022-12-09T03:21:38.939Z,26.13
2022-12-09T03:24:09.687Z,28.38
2022-12-09T03:26:39.645Z,27.90
2022-12-09T03:29:12.658Z,26.75
2022-12-09T03:31:40.660Z,25.77
2022-12-09T03:34:10.302Z,29.52
2022-12-09T03:36:42.246Z,23.27
2022-12-09T03:39:14.356Z,26.95
2022-12-09T03:41:46.368Z,27.80
2022-12-09T03:44:19.306Z,27.55
2022-12-09T03:46:47.811Z,26.73
2022-12-09T03:49:16.123Z,25.20
2022-12-09T03:51:51.074Z,24.42
2022-12-09T03:54:23.154Z,27.10
2022-12-09T03:56:54.937Z,27.02
2022-12-09T03:59:24.969Z,27.25
2022-12-09T04:01:53.814Z,24.90
2022-12-09T04:04:22.090Z,25.75
2022-12-09T04:06:53.718Z,25.13
2022-12-09T04:09:21.625Z,27.00
2022-12-09T04:11:49.853Z,25.02
2022-12-09T04:14:17.814Z,27.92
2022-12-09T04:16:46.361Z,24.92
2022-12-09T04:19:14.410Z,24.33
2022-12-09T04:21:42.522Z,23.05
2022-12-09T04:24:11.566Z,23.83
2022-12-09T04:26:39.449Z,22.23
2022-12-09T04:29:07.654Z,22.63
2022-12-09T04:31:35.842Z,23.60
2022-12-09T04:34:08.936Z,25.10
2022-12-09T04:36:38.084Z,23.10
2022-12-09T04:39:06.273Z,26.35
2022-12-09T04:41:36.778Z,24.42
2022-12-09T04:44:04.979Z,25.73
2022-12-09T04:46:33.247Z,27.00
2022-12-09T04:49:01.236Z,24.20
2022-12-09T04:51:32.496Z,26.52
2022-12-09T04:54:05.107Z,26.38
2022-12-09T04:56:33.106Z,27.38
2022-12-09T04:59:02.456Z,28.02
2022-12-09T05:01:31.630Z,26.25
2022-12-09T05:04:00.378Z,24.35
2022-12-09T05:06:29.469Z,26.35
2022-12-09T05:08:57.470Z,28.83
2022-12-09T05:11:25.914Z,26.00
2022-12-09T05:13:54.627Z,25.23
2022-12-09T05:16:24.199Z,20.70
2022-12-09T05:18:52.432Z,24.50
2022-12-09T05:21:21.909Z,25.95
2022-12-09T05:23:50.418Z,23.48
2022-12-09T05:26:20.637Z,25.20
2022-12-09T05:28:49.354Z,27.30
2022-12-09T05:31:20.032Z,27.90
2022-12-09T05:33:50.470Z,32.25
2022-12-09T05:36:20.931Z,29.42
2022-12-09T05:38:49.303Z,28.80
2022-12-09T05:41:17.804Z,29.60
2022-12-09T05:43:45.842Z,27.50
2022-12-09T05:46:14.760Z,29.88
2022-12-09T05:48:43.398Z,26.40
2022-12-09T05:51:17.493Z,27.63
2022-12-09T05:53:45.172Z,26.95
2022-12-09T05:56:16.268Z,25.38
2022-12-09T05:58:44.396Z,23.27
2022-12-09T06:01:12.644Z,24.90
2022-12-09T06:03:40.642Z,26.45
2022-12-09T06:06:10.370Z,25.65
2022-12-09T06:08:41.937Z,22.20
2022-12-09T06:11:13.550Z,25.17
2022-12-09T06:13:41.534Z,24.13
2022-12-09T06:16:10.630Z,23.15
2022-12-09T06:18:38.726Z,21.58
2022-12-09T06:21:08.119Z,23.60
2022-12-09T06:23:36.694Z,23.65
2022-12-09T06:26:06.486Z,22.90
2022-12-09T06:28:35.347Z,24.85
2022-12-09T06:31:03.496Z,24.20
2022-12-09T06:33:54.367Z,23.05
2022-12-09T06:36:19.641Z,21.83
2022-12-09T06:38:47.813Z,24.48
2022-12-09T06:41:17.172Z,25.00
2022-12-09T06:43:45.450Z,22.65
2022-12-09T06:46:14.650Z,21.45
2022-12-09T06:48:42.958Z,22.40
2022-12-09T06:51:12.067Z,24.27
2022-12-09T06:53:40.254Z,24.23
2022-12-09T06:56:12.704Z,22.15
2022-12-09T06:58:44.388Z,22.25
2022-12-09T07:01:14.781Z,24.95
2022-12-09T07:03:44.292Z,23.52
2022-12-09T07:06:21.907Z,22.70
2022-12-09T07:08:50.124Z,25.33
2022-12-09T07:11:18.452Z,24.80
2022-12-09T07:13:47.930Z,29.02
2022-12-09T07:16:15.798Z,26.80
2022-12-09T07:18:43.923Z,26.88
2022-12-09T07:21:13.969Z,24.80
2022-12-09T07:23:42.225Z,26.90
2022-12-09T07:26:10.144Z,24.20
2022-12-09T07:28:42.669Z,26.58
2022-12-09T07:31:21.349Z,27.08
2022-12-09T07:33:50.065Z,29.10
2022-12-09T07:36:21.228Z,29.95
2022-12-09T07:38:50.291Z,27.65
2022-12-09T07:41:19.284Z,26.90
2022-12-09T07:43:48.146Z,26.13
2022-12-09T07:46:19.955Z,22.98
2022-12-09T07:48:48.285Z,27.48
2022-12-09T07:51:17.182Z,28.08
2022-12-09T07:53:45.983Z,25.25
2022-12-09T07:56:16.309Z,26.40
2022-12-09T07:58:47.672Z,24.42
2022-12-09T08:01:19.044Z,25.13
2022-12-09T08:03:49.641Z,24.75
2022-12-09T08:06:19.798Z,23.75
2022-12-09T08:08:48.688Z,21.90
2022-12-09T08:11:19.188Z,24.73
2022-12-09T08:13:48.233Z,27.73
2022-12-09T08:16:17.830Z,25.63
2022-12-09T08:18:48.731Z,30.63
2022-12-09T08:21:18.918Z,25.63
2022-12-09T08:23:47.142Z,28.60
2022-12-09T08:26:16.237Z,29.15
2022-12-09T08:28:44.405Z,27.60
2022-12-09T08:31:14.503Z,24.77
2022-12-09T08:33:43.360Z,26.63
2022-12-09T08:36:14.558Z,28.00
2022-12-09T08:38:43.472Z,28.92
2022-12-09T08:41:13.248Z,27.27
2022-12-09T08:43:42.266Z,27.65
2022-12-09T08:46:11.250Z,29.10
2022-12-09T08:48:40.044Z,31.33
2022-12-09T08:51:09.209Z,30.80
2022-12-09T08:53:38.427Z,28.33
2022-12-09T08:56:11.164Z,28.40
2022-12-09T08:58:39.511Z,31.10
2022-12-09T09:01:08.055Z,29.30
2022-12-09T09:03:36.406Z,28.45
2022-12-09T09:06:10.510Z,28.48
2022-12-09T09:08:41.012Z,27.40
2022-12-09T09:11:11.553Z,30.00
2022-12-09T09:13:40.376Z,26.63
2022-12-09T09:16:11.431Z,28.30
2022-12-09T09:18:39.511Z,28.08
2022-12-09T09:21:09.128Z,28.10
2022-12-09T09:23:37.505Z,30.52
2022-12-09T09:26:11.050Z,30.23
2022-12-09T09:28:39.215Z,26.70
2022-12-09T09:31:09.364Z,27.70
2022-12-09T09:33:37.441Z,29.77
2022-12-09T09:36:10.484Z,28.75
2022-12-09T09:38:39.428Z,29.90
2022-12-09T09:41:21.793Z,26.50
2022-12-09T09:43:50.552Z,28.38
2022-12-09T09:46:23.640Z,26.95
2022-12-09T09:48:54.631Z,23.63
2022-12-09T09:51:23.028Z,22.67
2022-12-09T09:53:53.285Z,25.08
2022-12-09T09:56:28.524Z,25.17
2022-12-09T09:59:06.567Z,26.73
2022-12-09T10:01:37.565Z,25.27
2022-12-09T10:04:13.131Z,25.50
2022-12-09T10:06:48.903Z,22.42
2022-12-09T10:09:22.853Z,22.75
2022-12-09T10:12:01.797Z,26.45
2022-12-09T10:14:41.937Z,27.38
2022-12-09T10:17:20.912Z,23.70
2022-12-09T10:19:52.679Z,21.70
2022-12-09T10:22:23.961Z,17.80
2022-12-09T10:24:54.431Z,15.90
2022-12-09T10:27:31.525Z,15.63
2022-12-09T10:30:02.419Z,14.98
2022-12-09T10:32:32.523Z,16.15
2022-12-09T10:35:01.571Z,17.98
2022-12-09T10:37:33.245Z,16.50
2022-12-09T10:40:18.653Z,19.40
2022-12-09T10:43:08.092Z,20.05
2022-12-09T10:46:15.888Z,16.35
2022-12-09T10:48:34.444Z,17.25
2022-12-09T10:51:06.105Z,17.08
2022-12-09T10:53:36.831Z,17.80
2022-12-09T10:56:05.600Z,16.35
2022-12-09T10:58:34.765Z,16.35
2022-12-09T11:01:07.863Z,17.48
2022-12-09T11:03:41.523Z,18.58
2022-12-09T11:06:21.736Z,15.38
2022-12-09T11:08:52.518Z,17.77
2022-12-09T11:11:20.721Z,17.23
2022-12-09T11:13:50.001Z,16.00
2022-12-09T11:16:18.138Z,15.40
2022-12-09T11:18:48.260Z,12.70
2022-12-09T11:21:35.759Z,14.73
2022-12-09T11:24:04.833Z,13.52
2022-12-09T11:26:36.571Z,15.15
2022-12-09T11:29:14.090Z,13.20
2022-12-09T11:31:42.964Z,12.63
2022-12-09T11:34:18.346Z,11.45
2022-12-09T11:36:50.942Z,12.23
2022-12-09T11:39:26.296Z,12.43
2022-12-09T11:42:18.575Z,11.20
2022-12-09T11:44:56.491Z,10.65
2022-12-09T11:47:36.418Z,10.23
2022-12-09T11:50:18.226Z,10.55
2022-12-09T11:52:46.762Z,8.80
2022-12-09T11:55:20.748Z,9.93
2022-12-09T11:57:52.293Z,10.50
2022-12-09T12:00:24.425Z,9.40
2022-12-09T12:03:00.691Z,12.52
2022-12-09T12:05:34.313Z,12.13
2022-12-09T12:08:15.017Z,12.20
2022-12-09T12:10:46.985Z,11.60
2022-12-09T12:13:22.067Z,13.38
2022-12-09T12:15:56.511Z,13.90
2022-12-09T12:18:24.563Z,12.13
2022-12-09T12:21:21.075Z,10.98
2022-12-09T12:24:11.441Z,12.43
2022-12-09T12:26:44.661Z,12.37
2022-12-09T12:29:25.221Z,12.40
2022-12-09T12:32:07.588Z,12.60
2022-12-09T12:34:45.024Z,12.13
2022-12-09T12:37:24.075Z,11.80
2022-12-09T12:40:00.260Z,11.50
2022-12-09T12:42:41.692Z,10.43
2022-12-09T12:45:34.966Z,11.00
2022-12-09T12:48:10.294Z,11.57
2022-12-09T12:50:55.542Z,13.37
2022-12-09T12:53:33.253Z,12.77
2022-12-09T12:56:06.484Z,11.25
2022-12-09T12:58:44.475Z,11.60
2022-12-09T13:01:21.668Z,12.80
2022-12-09T13:04:02.013Z,10.63
2022-12-09T13:06:50.538Z,14.50
2022-12-09T13:09:24.956Z,14.30
2022-12-09T13:12:01.255Z,14.05
2022-12-09T13:14:35.071Z,14.20
2022-12-09T13:17:06.205Z,14.50
2022-12-09T13:19:40.717Z,12.85
2022-12-09T13:22:17.325Z,13.75
2022-12-09T13:24:54.193Z,11.40
2022-12-09T13:27:38.154Z,13.40
2022-12-09T13:30:13.219Z,13.30
2022-12-09T13:32:59.516Z,13.50
2022-12-09T13:35:36.521Z,14.00
2022-12-09T13:38:04.814Z,13.47
2022-12-09T13:40:37.011Z,13.23
2022-12-09T13:43:13.523Z,15.30
2022-12-09T13:45:50.320Z,15.97
2022-12-09T13:48:47.885Z,15.60
2022-12-09T13:51:18.816Z,15.07
2022-12-09T13:53:53.595Z,15.75
2022-12-09T13:56:26.126Z,15.90
2022-12-09T13:59:18.431Z,14.50
2022-12-09T14:01:50.547Z,17.13
2022-12-09T14:04:22.149Z,17.17
2022-12-09T14:06:57.614Z,16.77
2022-12-09T14:09:34.088Z,17.27
2022-12-09T14:12:04.752Z,18.35
2022-12-09T14:14:53.942Z,16.83
2022-12-09T14:17:59.607Z,18.42
2022-12-09T14:20:39.171Z,18.33
2022-12-09T14:23:26.047Z,18.23
2022-12-09T14:26:02.876Z,19.25
2022-12-09T14:28:59.494Z,19.00
2022-12-09T14:32:41.510Z,17.98
2022-12-09T14:38:29.633Z,18.92
2022-12-09T14:41:15.994Z,19.85
2022-12-09T14:43:54.751Z,20.48
2022-12-09T14:46:27.258Z,20.40
2022-12-09T14:48:58.138Z,19.02
2022-12-09T14:51:29.643Z,21.10
2022-12-09T14:54:01.796Z,18.90
2022-12-09T14:56:33.227Z,21.25
2022-12-09T14:59:05.993Z,20.75
2022-12-09T15:01:48.745Z,20.77
2022-12-09T15:04:24.752Z,21.33
2022-12-09T15:07:07.961Z,21.92
2022-12-09T15:09:37.530Z,20.67
2022-12-09T15:12:10.583Z,19.65
2022-12-09T15:14:39.109Z,19.85
2022-12-09T15:17:07.947Z,21.17
2022-12-09T15:19:59.675Z,20.85
2022-12-09T15:22:26.793Z,23.58
2022-12-09T15:24:56.153Z,23.42
2022-12-09T15:27:26.144Z,21.33
2022-12-09T15:29:54.663Z,23.05
2022-12-09T15:32:25.736Z,26.67
2022-12-09T15:34:54.216Z,23.30
2022-12-09T15:37:27.009Z,22.95
2022-12-09T15:40:03.628Z,23.33
2022-12-09T15:42:34.442Z,27.83
2022-12-09T15:45:07.722Z,25.05
2022-12-09T15:47:39.402Z,22.88
2022-12-09T15:50:18.122Z,25.13
2022-12-09T15:52:51.515Z,24.40
2022-12-09T15:55:24.779Z,27.98
2022-12-09T15:57:55.456Z,29.35
2022-12-09T16:00:23.415Z,28.80
2022-12-09T16:02:51.809Z,28.58
2022-12-09T16:05:24.503Z,30.70
2022-12-09T16:07:54.455Z,33.65
2022-12-09T16:10:26.717Z,31.98
2022-12-09T16:13:09.582Z,32.88
2022-12-09T16:15:47.378Z,32.72
2022-12-09T16:18:19.210Z,35.38
2022-12-09T16:20:59.767Z,35.55
2022-12-09T16:23:28.711Z,33.83
2022-12-09T16:26:06.619Z,35.20
2022-12-09T16:28:35.415Z,35.42
2022-12-09T16:31:05.540Z,36.08
2022-12-09T16:33:38.599Z,33.75
2022-12-09T16:36:09.963Z,30.88
2022-12-09T16:38:38.375Z,34.80
2022-12-09T16:41:12.652Z,29.75
2022-12-09T16:43:58.381Z,33.60
2022-12-09T16:46:37.263Z,34.40
2022-12-09T16:49:05.306Z,31.33
2022-12-09T16:51:33.865Z,34.47
2022-12-09T16:54:01.493Z,35.45
2022-12-09T16:56:32.746Z,37.17
2022-12-09T16:59:00.764Z,37.85
2022-12-09T17:01:33.585Z,34.33
2022-12-09T17:04:05.113Z,32.95
2022-12-09T17:06:32.740Z,33.45
2022-12-09T17:09:00.406Z,34.05
2022-12-09T17:11:28.127Z,34.95
2022-12-09T17:13:57.199Z,33.45
2022-12-09T17:16:26.702Z,34.05
2022-12-09T17:18:54.646Z,39.05
2022-12-09T17:21:22.306Z,34.30
2022-12-09T17:23:49.998Z,38.17
2022-12-09T17:26:20.451Z,34.55
2022-12-09T17:28:49.476Z,33.80
2022-12-09T17:31:20.768Z,36.60
2022-12-09T17:33:49.071Z,30.83
2022-12-09T17:36:18.118Z,32.75
2022-12-09T17:38:45.810Z,32.90
2022-12-09T17:41:15.918Z,32.85
2022-12-09T17:43:44.119Z,32.50
2022-12-09T17:46:12.978Z,31.27
2022-12-09T17:48:42.678Z,34.17
2022-12-09T17:51:11.948Z,36.78
2022-12-09T17:53:40.909Z,33.58
2022-12-09T17:56:10.137Z,33.22
2022-12-09T17:58:37.998Z,33.95
2022-12-09T18:01:05.922Z,33.75
2022-12-09T18:03:55.045Z,35.53
2022-12-09T18:06:22.548Z,31.27
2022-12-09T18:08:50.204Z,32.50
2022-12-09T18:11:17.975Z,32.92
2022-12-09T18:13:46.567Z,34.28
2022-12-09T18:16:15.447Z,33.50
2022-12-09T18:18:43.732Z,31.52
2022-12-09T18:21:15.887Z,31.65
2022-12-09T18:23:45.428Z,31.17
2022-12-09T18:26:15.315Z,34.47
2022-12-09T18:28:43.325Z,33.17
2022-12-09T18:31:13.000Z,32.38
2022-12-09T18:33:42.868Z,32.50
2022-12-09T18:36:12.700Z,32.22
2022-12-09T18:38:41.380Z,33.75
2022-12-09T18:41:13.139Z,35.72
2022-12-09T18:43:43.096Z,32.10
2022-12-09T18:46:13.457Z,31.10
2022-12-09T18:48:41.425Z,32.35
2022-12-09T18:51:16.052Z,33.10
2022-12-09T18:53:43.908Z,31.45
2022-12-09T18:56:12.969Z,31.60
2022-12-09T18:59:04.746Z,31.88
2022-12-09T19:01:30.712Z,31.58
2022-12-09T19:04:00.972Z,31.85
2022-12-09T19:06:30.327Z,34.30
2022-12-09T19:09:00.394Z,30.15
2022-12-09T19:11:31.857Z,34.50
2022-12-09T19:14:00.410Z,32.80
2022-12-09T19:16:30.140Z,26.88
2022-12-09T19:19:01.445Z,26.90
2022-12-09T19:21:33.295Z,29.05
2022-12-09T19:24:01.365Z,31.67
2022-12-09T19:26:33.483Z,28.08
2022-12-09T19:29:03.416Z,27.95
2022-12-09T19:31:33.352Z,30.10
2022-12-09T19:34:02.946Z,32.40
2022-12-09T19:36:33.787Z,27.83
2022-12-09T19:39:02.301Z,28.10
2022-12-09T19:41:31.326Z,27.40
2022-12-09T19:44:00.254Z,27.45
2022-12-09T19:46:29.110Z,29.90
2022-12-09T19:48:57.840Z,29.13
2022-12-09T19:51:26.594Z,32.35
2022-12-09T19:53:55.476Z,30.00
2022-12-09T19:56:23.802Z,35.55
2022-12-09T19:58:53.623Z,30.17
2022-12-09T20:01:23.088Z,31.30
2022-12-09T20:03:53.159Z,29.67
2022-12-09T20:06:21.812Z,31.65
2022-12-09T20:08:50.186Z,28.88
2022-12-09T20:11:20.410Z,27.05
2022-12-09T20:13:48.790Z,29.55
2022-12-09T20:16:19.627Z,28.88
2022-12-09T20:18:48.541Z,29.77
2022-12-09T20:21:18.600Z,28.85
2022-12-09T20:23:47.665Z,30.23
2022-12-09T20:26:16.808Z,32.17
2022-12-09T20:28:45.962Z,31.40
2022-12-09T20:31:15.766Z,30.60
2022-12-09T20:33:45.333Z,32.53
2022-12-09T20:36:15.541Z,30.23
2022-12-09T20:38:44.164Z,30.42
2022-12-09T20:41:14.106Z,32.35
2022-12-09T20:43:43.277Z,31.52
2022-12-09T20:46:13.198Z,32.10
2022-12-09T20:48:41.888Z,35.03
2022-12-09T20:51:14.083Z,33.17
2022-12-09T20:53:43.447Z,36.03
2022-12-09T20:56:11.605Z,39.03
2022-12-09T20:58:40.196Z,36.00
2022-12-09T21:01:10.447Z,39.80
2022-12-09T21:03:38.474Z,38.10
2022-12-09T21:06:06.808Z,39.47
2022-12-09T21:08:36.369Z,35.72
2022-12-09T21:11:05.934Z,39.33
2022-12-09T21:13:37.006Z,42.22
2022-12-09T21:16:06.360Z,35.75
2022-12-09T21:18:34.169Z,38.90
2022-12-09T21:21:01.899Z,35.88
2022-12-09T21:23:34.120Z,36.75
2022-12-09T21:26:06.448Z,37.60
2022-12-09T21:28:34.141Z,37.83
2022-12-09T21:31:07.846Z,34.80
2022-12-09T21:33:35.697Z,35.05
2022-12-09T21:36:06.393Z,36.85
2022-12-09T21:38:34.036Z,37.15
2022-12-09T21:41:08.850Z,35.22
2022-12-09T21:43:37.710Z,36.97
2022-12-09T21:46:06.498Z,34.75
2022-12-09T21:48:34.636Z,36.42
2022-12-09T21:51:03.840Z,39.78
2022-12-09T21:53:32.596Z,41.50
2022-12-09T21:56:03.253Z,37.20
2022-12-09T21:58:33.543Z,38.47
2022-12-09T22:01:02.859Z,37.97
2022-12-09T22:03:30.548Z,35.08
2022-12-09T22:06:00.357Z,36.15
2022-12-09T22:08:28.480Z,34.65
2022-12-09T22:10:58.211Z,43.58
2022-12-09T22:13:26.050Z,35.15
2022-12-09T22:15:55.049Z,38.80
2022-12-09T22:18:22.727Z,33.90
2022-12-09T22:21:22.982Z,34.22
2022-12-09T22:23:38.912Z,31.92
2022-12-09T22:26:07.602Z,34.45
2022-12-09T22:28:35.830Z,34.53
2022-12-09T22:31:09.643Z,34.55
2022-12-09T22:33:37.370Z,34.03
2022-12-09T22:36:05.589Z,34.35
2022-12-09T22:38:33.674Z,35.65
2022-12-09T22:41:04.403Z,35.03
2022-12-09T22:43:37.737Z,35.42
2022-12-09T22:46:09.471Z,34.88
2022-12-09T22:48:37.840Z,36.90
2022-12-09T22:51:07.329Z,32.85
2022-12-09T22:53:35.073Z,38.13
2022-12-09T22:56:03.042Z,35.42
2022-12-09T22:58:31.851Z,36.15
2022-12-09T23:00:59.481Z,36.97
2022-12-09T23:03:28.694Z,39.83
2022-12-09T23:05:56.511Z,35.75
2022-12-09T23:08:24.225Z,34.00
2022-12-09T23:10:52.298Z,36.78
2022-12-09T23:13:19.940Z,38.58
2022-12-09T23:15:47.605Z,33.60
2022-12-09T23:18:15.213Z,34.83
2022-12-09T23:20:44.174Z,35.90
2022-12-09T23:23:11.802Z,36.53
2022-12-09T23:25:39.406Z,35.33
2022-12-09T23:28:07.000Z,41.67
2022-12-09T23:30:35.457Z,31.05
2022-12-09T23:33:03.189Z,40.40
2022-12-09T23:35:31.182Z,38.90
2022-12-09T23:38:00.171Z,37.25
2022-12-09T23:40:27.775Z,34.17
2022-12-09T23:42:55.409Z,38.45
2022-12-09T23:45:23.016Z,36.72
2022-12-09T23:47:50.661Z,37.85
2022-12-09T23:50:18.554Z,40.00
2022-12-09T23:52:46.244Z,39.33
2022-12-09T23:55:15.206Z,37.10
2022-12-09T23:57:42.839Z,39.90
